Freedom, Wisconsin
Current Conditions -  °F | °C
As of 9:53 AM on Thursday 23 Oct 2014 (Local Time) from KGRB Reporting Station
Clear Clear  
Wind Chill: 43°   Ceiling: Unl
Heat Index: 47°   Visibility: 9mi
Dew Point: 39°   Wind: 9mph
Humidity: 74%   Direction: 180°S
Pressure: 30.15"   Gusts: NA
Location:  44.39°N, 88.29°W
Report Text: KGRB 231453Z 18008KT 9SM CLR 08/04 A3015 RMK AO2 SLP213 T00830039 58008
Loading
Personal Weather Stations






























Interactive Weather Map
Tropical Storm Tracking
New forecast layout! Learn more

10-Day Weather Forecast

Advertisements
Track Severe Weather on mobile